This is the latest recevied weather packets stored in our database for station/object Krozingen. If no packets are shown the sender has not sent any weather packets the latest 10 day(s).
| Time | Temp. | Humidity | Pressure | Rain* | Wind** | Luminosity | Snow |
|---|---|---|---|---|---|---|---|
| 1777575735 | 16.67° C | 26% | 1022 hPa | 0 mm | - | - | - |
| 1777573930 | 18.33° C | 24% | 1021.8 hPa | 0 mm | - | - | - |
| 1777572132 | 19.44° C | 23% | 1021.3 hPa | 0 mm | - | - | - |
| 1777570330 | 20.56° C | 23% | 1021.1 hPa | 0 mm | - | - | - |
| 1777568531 | 21.11° C | 23% | 1020.9 hPa | 0 mm | - | - | - |
| 1777566730 | 21.67° C | 23% | 1020.7 hPa | 0 mm | - | - | - |
| 1777564930 | 22.22° C | 23% | 1020.4 hPa | 0 mm | - | - | - |
| 1777563132 | 22.78° C | 23% | 1020.4 hPa | 0 mm | - | - | - |
| 1777559530 | 22.22° C | 22% | 1020.5 hPa | 0 mm | - | - | - |
| 1777557730 | 22.22° C | 22% | 1020.8 hPa | 0 mm | - | - | - |
| 1777555931 | 21.67° C | 22% | 1020.9 hPa | 0 mm | - | - | - |
| 1777554130 | 21.67° C | 23% | 1021.2 hPa | 0 mm | - | - | - |
| 1777552332 | 20.56° C | 26% | 1021.3 hPa | 0 mm | - | - | - |
| 1777550530 | 20° C | 33% | 1021.7 hPa | 0 mm | - | - | - |
| 1777548730 | 18.89° C | 36% | 1022.1 hPa | 0 mm | - | - | - |
| 1777546931 | 18.33° C | 37% | 1022.4 hPa | 0 mm | - | - | - |
| 1777545130 | 17.78° C | 35% | 1022.7 hPa | 0 mm | - | - | - |
| 1777543330 | 16.67° C | 37% | 1022.9 hPa | 0 mm | - | - | - |
| 1777541531 | 15.56° C | 41% | 1023.2 hPa | 0 mm | - | - | - |
| 1777539731 | 15° C | 42% | 1023.3 hPa | 0 mm | - | - | - |
| 1777537942 | 13.89° C | 46% | 1023.4 hPa | 0 mm | - | - | - |
| 1777536137 | 13.33° C | 48% | 1023.4 hPa | 0 mm | - | - | - |
| 1777534332 | 11.67° C | 50% | 1023.6 hPa | 0 mm | - | - | - |
| 1777532532 | 11.11° C | 52% | 1023.5 hPa | 0 mm | - | - | - |
| 1777530736 | 11.67° C | 53% | 1023.4 hPa | 0 mm | - | - | - |
* Rain since midnight (hover to see other rain measurements)
** Current wind speed in m/s (hover to see current wind gust speed)